• Join FlightAware (Why Join?)
  • Login
  • US Flag 
01:22AM EDT


 

Airport Tracker/Info


-or-


 

Live Flight TrackerFlight Track Log ✈ AFL150 ✈ 10-Feb-2014 ✈ UUEE / SVO - MUHA / HAV

Flight Track Log - Related Links

Times and Time Zones

All times are in EST time to prevent confusion due to time zone crossing. See the AFL150 flight status page for this flight to view local times or setup timezone preferences in your user account.

Time Position Orientation Groundspeed Altitude Reporting Facility
EST Latitude Longitude Course Direction KTS MPH feet Rate Location/Type
04:16AM 56.3390 36.8379 318° Northwest  Level FlightAware Approximate
04:17AM 56.4299 36.6862 317° Northwest  Level FlightAware Approximate
04:18AM 56.5207 36.5338 317° Northwest  Level FlightAware Approximate
04:19AM 56.6112 36.3806 317° Northwest  Level FlightAware Approximate
04:20AM 56.7016 36.2267 317° Northwest  Level FlightAware Approximate
04:21AM 56.7917 36.0721 317° Northwest  Level FlightAware Approximate
04:22AM 56.8817 35.9168 317° Northwest  Level FlightAware Approximate
04:23AM 56.9715 35.7607 317° Northwest  Level FlightAware Approximate
04:24AM 57.0611 35.6038 316° Northwest  Level FlightAware Approximate
04:25AM 57.1504 35.4462 316° Northwest  Level FlightAware Approximate
04:26AM 57.2396 35.2878 316° Northwest  Level FlightAware Approximate
04:27AM 57.3286 35.1286 316° Northwest  Level FlightAware Approximate
04:28AM 57.4174 34.9687 316° Northwest  Level FlightAware Approximate
04:29AM 57.5060 34.8080 316° Northwest  Level FlightAware Approximate
04:30AM 57.5943 34.6465 316° Northwest  Level FlightAware Approximate
04:31AM 57.6215 34.5922 314° West  Level FlightAware Approximate
04:32AM 57.7068 34.4246 314° West  Level FlightAware Approximate
04:33AM 57.7920 34.2563 314° West  Level FlightAware Approximate
04:34AM 57.8769 34.0872 313° West  Level FlightAware Approximate
04:35AM 57.9616 33.9172 313° West  Level FlightAware Approximate
04:36AM 58.0460 33.7465 313° West  Level FlightAware Approximate
04:37AM 58.1302 33.5749 313° West  Level FlightAware Approximate
04:38AM 58.2142 33.4026 313° West  Level FlightAware Approximate
04:39AM 58.2980 33.2294 313° West  Level FlightAware Approximate
04:40AM 58.3815 33.0554 313° West  Level FlightAware Approximate
04:41AM 58.4648 32.8806 312° West  Level FlightAware Approximate
04:42AM 58.5479 32.7049 312° West  Level FlightAware Approximate
04:43AM 58.6307 32.5284 312° West  Level FlightAware Approximate
04:44AM 58.7133 32.3511 312° West  Level FlightAware Approximate
04:45AM 58.7956 32.1730 312° West  Level FlightAware Approximate
04:46AM 58.8777 31.9939 312° West  Level FlightAware Approximate
04:47AM 58.9595 31.8141 311° West  Level FlightAware Approximate
04:48AM 59.0411 31.6334 311° West  Level FlightAware Approximate
04:49AM 59.1224 31.4518 311° West  Level FlightAware Approximate
04:50AM 59.2035 31.2694 311° West  Level FlightAware Approximate
04:51AM 59.2843 31.0861 311° West  Level FlightAware Approximate
04:52AM 59.3648 30.9019 311° West  Level FlightAware Approximate
04:53AM 59.4451 30.7169 311° West  Level FlightAware Approximate
04:54AM 59.5251 30.5309 310° West  Level FlightAware Approximate
04:55AM 59.6049 30.3441 310° West  Level FlightAware Approximate
04:56AM 59.6844 30.1564 310° West  Level FlightAware Approximate
04:57AM 59.7636 29.9678 310° West  Level FlightAware Approximate
04:58AM 59.8426 29.7783 310° West  Level FlightAware Approximate
04:59AM 59.9213 29.5880 310° West  Level FlightAware Approximate
05:00AM 59.9997 29.3967 309° West  Level FlightAware Approximate
05:01AM 60.0778 29.2045 309° West  Level FlightAware Approximate
05:02AM 60.1557 29.0114 309° West  Level FlightAware Approximate
05:03AM 60.2332 28.8174 309° West  Level FlightAware Approximate
05:04AM 60.3105 28.6224 309° West  Level FlightAware Approximate
05:05AM 60.3875 28.4265 309° West  Level FlightAware Approximate
05:06AM 60.4642 28.2298 308° West  Level FlightAware Approximate
05:07AM 60.5407 28.0320 308° West  Level FlightAware Approximate
05:08AM 60.6168 27.8334 308° West  Level FlightAware Approximate
05:09AM 60.6926 27.6338 308° West  Level FlightAware Approximate
05:10AM 60.7681 27.4333 308° West  Level FlightAware Approximate
05:11AM 60.8434 27.2318 308° West  Level FlightAware Approximate
05:12AM 60.9183 27.0294 307° West  Level FlightAware Approximate
05:13AM 60.9929 26.8260 307° West  Level FlightAware Approximate
05:14AM 61.0672 26.6217 307° West  Level FlightAware Approximate
05:15AM 61.1412 26.4164 307° West  Level FlightAware Approximate
05:16AM 61.2149 26.2101 307° West  Level FlightAware Approximate
05:17AM 61.2883 26.0029 306° West  Level FlightAware Approximate
05:18AM 61.3614 25.7947 306° West  Level FlightAware Approximate
05:19AM 61.4341 25.5855 306° West  Level FlightAware Approximate
05:20AM 61.5065 25.3754 306° West  Level FlightAware Approximate
05:21AM 61.5786 25.1643 306° West  Level FlightAware Approximate
05:22AM 61.6504 24.9522 306° West  Level FlightAware Approximate
05:23AM 61.7218 24.7391 305° West  Level FlightAware Approximate
05:24AM 61.7929 24.5250 305° West  Level FlightAware Approximate
05:25AM 61.8637 24.3100 305° West  Level FlightAware Approximate
05:26AM 61.9341 24.0939 305° West  Level FlightAware Approximate
05:27AM 62.0042 23.8769 305° West  Level FlightAware Approximate
05:28AM 62.0740 23.6588 304° West  Level FlightAware Approximate
05:29AM 62.1434 23.4398 304° West  Level FlightAware Approximate
05:30AM 62.2124 23.2197 304° West  Level FlightAware Approximate
05:31AM 62.2811 22.9986 304° West  Level FlightAware Approximate
05:32AM 62.3495 22.7766 304° West  Level FlightAware Approximate
05:33AM 62.4175 22.5535 303° West  Level FlightAware Approximate
05:34AM 62.4851 22.3294 303° West  Level FlightAware Approximate
05:35AM 62.5524 22.1043 303° West  Level FlightAware Approximate
05:36AM 62.6193 21.8781 303° West  Level FlightAware Approximate
05:37AM 62.6859 21.6510 303° West  Level FlightAware Approximate
05:38AM 62.7521 21.4228 302° West  Level FlightAware Approximate
05:39AM 62.8179 21.1936 302° West  Level FlightAware Approximate
05:40AM 62.8833 20.9634 302° West  Level FlightAware Approximate
05:41AM 62.9484 20.7322 302° West  Level FlightAware Approximate
05:42AM 63.0131 20.4999 302° West  Level FlightAware Approximate
05:43AM 63.0773 20.2666 301° West  Level FlightAware Approximate
05:44AM 63.1413 20.0323 301° West  Level FlightAware Approximate
05:45AM 63.2049 19.7970 301° West  Level FlightAware Approximate
05:46AM 63.2681 19.5607 301° West  Level FlightAware Approximate
05:47AM 63.3310 19.3234 301° West  Level FlightAware Approximate
05:48AM 63.3934 19.0851 300° West  Level FlightAware Approximate
05:49AM 63.4554 18.8457 300° West  Level FlightAware Approximate
05:50AM 63.5171 18.6053 300° West  Level FlightAware Approximate
05:51AM 63.5783 18.3639 300° West  Level FlightAware Approximate
05:52AM 63.6392 18.1214 300° West  Level FlightAware Approximate
05:53AM 63.6996 17.8779 299° West  Level FlightAware Approximate
05:54AM 63.7596 17.6334 299° West  Level FlightAware Approximate
05:55AM 63.8192 17.3878 299° West  Level FlightAware Approximate
05:56AM 63.8784 17.1411 299° West  Level FlightAware Approximate
05:57AM 63.9372 16.8935 298° West  Level FlightAware Approximate
05:58AM 63.9955 16.6448 298° West  Level FlightAware Approximate
05:59AM 64.0534 16.3950 298° West  Level FlightAware Approximate
06:00AM 64.1109 16.1443 298° West  Level FlightAware Approximate
06:01AM 64.1679 15.8925 298° West  Level FlightAware Approximate
06:02AM 64.2245 15.6396 297° West  Level FlightAware Approximate
06:03AM 64.2807 15.3857 297° West  Level FlightAware Approximate
06:04AM 64.3364 15.1308 297° West  Level FlightAware Approximate
06:05AM 64.3917 14.8749 297° West  Level FlightAware Approximate
06:06AM 64.4465 14.6179 296° West  Level FlightAware Approximate
06:07AM 64.5009 14.3599 296° West  Level FlightAware Approximate
06:08AM 64.5548 14.1009 296° West  Level FlightAware Approximate
06:09AM 64.6083 13.8409 296° West  Level FlightAware Approximate
06:10AM 64.6613 13.5798 295° West  Level FlightAware Approximate
06:11AM 64.7139 13.3177 295° West  Level FlightAware Approximate
06:12AM 64.7660 13.0546 295° West  Level FlightAware Approximate
06:13AM 64.8176 12.7905 295° West  Level FlightAware Approximate
06:14AM 64.8688 12.5254 295° West  Level FlightAware Approximate
06:15AM 64.9194 12.2593 294° West  Level FlightAware Approximate
06:16AM 64.9696 11.9922 294° West  Level FlightAware Approximate
06:17AM 65.0193 11.7240 294° West  Level FlightAware Approximate
06:18AM 65.0686 11.4549 294° West  Level FlightAware Approximate
06:19AM 65.1173 11.1848 293° West  Level FlightAware Approximate
06:20AM 65.1656 10.9137 293° West  Level FlightAware Approximate
06:21AM 65.2134 10.6416 293° West  Level FlightAware Approximate
06:22AM 65.2607 10.3686 293° West  Level FlightAware Approximate
06:23AM 65.3075 10.0945 292° West  Level FlightAware Approximate
06:24AM 65.3538 9.8195 292° West  Level FlightAware Approximate
06:25AM 65.3995 9.5436 292° West  Level FlightAware Approximate
06:26AM 65.4448 9.2666 292° West  Level FlightAware Approximate
06:27AM 65.4896 8.9887 291° West  Level FlightAware Approximate
06:28AM 65.5338 8.7099 291° West  Level FlightAware Approximate
06:29AM 65.5776 8.4301 291° West  Level FlightAware Approximate
06:30AM 65.6208 8.1494 291° West  Level FlightAware Approximate
06:31AM 65.6635 7.8678 290° West  Level FlightAware Approximate
06:32AM 65.7057 7.5852 290° West  Level FlightAware Approximate
06:33AM 65.7474 7.3017 290° West  Level FlightAware Approximate
06:34AM 65.7885 7.0173 290° West  Level FlightAware Approximate
06:35AM 65.8291 6.7320 289° West  Level FlightAware Approximate
06:36AM 65.8692 6.4458 289° West  Level FlightAware Approximate
06:37AM 65.9088 6.1587 289° West  Level FlightAware Approximate
06:38AM 65.9478 5.8708 289° West  Level FlightAware Approximate
06:39AM 65.9862 5.5819 288° West  Level FlightAware Approximate
06:40AM 66.0242 5.2922 288° West  Level FlightAware Approximate
06:41AM 66.0615 5.0016 288° West  Level FlightAware Approximate
06:42AM 66.0984 4.7102 287° West  Level FlightAware Approximate
06:43AM 66.1347 4.4180 287° West  Level FlightAware Approximate
06:44AM 66.1704 4.1249 287° West  Level FlightAware Approximate
06:45AM 66.2056 3.8310 287° West  Level FlightAware Approximate
06:46AM 66.2402 3.5363 286° West  Level FlightAware Approximate
06:47AM 66.2742 3.2407 286° West  Level FlightAware Approximate
06:48AM 66.3077 2.9444 286° West  Level FlightAware Approximate
06:49AM 66.3406 2.6473 286° West  Level FlightAware Approximate
06:50AM 66.3730 2.3494 285° West  Level FlightAware Approximate
06:51AM 66.4048 2.0508 285° West  Level FlightAware Approximate
06:52AM 66.4360 1.7514 285° West  Level FlightAware Approximate
06:53AM 66.4666 1.4513 284° West  Level FlightAware Approximate
06:54AM 66.4967 1.1504 284° West  Level FlightAware Approximate
06:55AM 66.5262 0.8488 284° West  Level FlightAware Approximate
06:56AM 66.5551 0.5465 284° West  Level FlightAware Approximate
06:57AM 66.5834 0.2436 283° West  Level FlightAware Approximate
06:58AM 66.6111 -0.0601 283° West  Level FlightAware Approximate
06:59AM 66.6383 -0.3645 283° West  Level FlightAware Approximate
07:00AM 66.6648 -0.6695 283° West  Level FlightAware Approximate
07:01AM 66.6908 -0.9751 282° West  Level FlightAware Approximate
07:02AM 66.7161 -1.2814 282° West  Level FlightAware Approximate
07:03AM 66.7409 -1.5884 282° West  Level FlightAware Approximate
07:04AM 66.7651 -1.8959 281° West  Level FlightAware Approximate
07:05AM 66.7887 -2.2040 281° West  Level FlightAware Approximate
07:06AM 66.8116 -2.5127 281° West  Level FlightAware Approximate
07:07AM 66.8340 -2.8220 281° West  Level FlightAware Approximate
07:08AM 66.8558 -3.1319 280° West  Level FlightAware Approximate
07:09AM 66.8769 -3.4422 280° West  Level FlightAware Approximate
07:10AM 66.8975 -3.7531 280° West  Level FlightAware Approximate
07:11AM 66.9174 -4.0646 279° West  Level FlightAware Approximate
07:12AM 66.9367 -4.3765 279° West  Level FlightAware Approximate
07:13AM 66.9555 -4.6889 279° West  Level FlightAware Approximate
07:14AM 66.9736 -5.0018 279° West  Level FlightAware Approximate
07:15AM 66.9911 -5.3152 278° West  Level FlightAware Approximate
07:16AM 67.0079 -5.6290 278° West  Level FlightAware Approximate
07:17AM 67.0242 -5.9432 278° West  Level FlightAware Approximate
07:18AM 67.0398 -6.2578 277° West  Level FlightAware Approximate
07:19AM 67.0548 -6.5728 277° West  Level FlightAware Approximate
07:20AM 67.0692 -6.8882 277° West  Level FlightAware Approximate
07:21AM 67.0830 -7.2040 277° West  Level FlightAware Approximate
07:22AM 67.0961 -7.5201 276° West  Level FlightAware Approximate
07:23AM 67.1086 -7.8366 276° West  Level FlightAware Approximate
07:24AM 67.1205 -8.1534 276° West  Level FlightAware Approximate
07:25AM 67.1318 -8.4705 275° West  Level FlightAware Approximate
07:26AM 67.1424 -8.7878 275° West  Level FlightAware Approximate
07:27AM 67.1524 -9.1055 275° West  Level FlightAware Approximate
07:28AM 67.1618 -9.4234 274° West  Level FlightAware Approximate
07:29AM 67.1705 -9.7415 274° West  Level FlightAware Approximate
07:30AM 67.1786 -10.0599 274° West  Level FlightAware Approximate
07:31AM 67.1861 -10.3784 274° West  Level FlightAware Approximate
07:32AM 67.1929 -10.6972 273° West  Level FlightAware Approximate
07:33AM 67.1991 -11.0161 273° West  Level FlightAware Approximate
07:34AM 67.2047 -11.3352 273° West  Level FlightAware Approximate
07:35AM 67.2096 -11.6544 272° West  Level FlightAware Approximate
07:36AM 67.2139 -11.9737 272° West  Level FlightAware Approximate
07:37AM 67.2176 -12.2932 272° West  Level FlightAware Approximate
07:38AM 67.2206 -12.6127 272° West  Level FlightAware Approximate
07:39AM 67.2230 -12.9323 271° West  Level FlightAware Approximate
07:40AM 67.2247 -13.2520 271° West  Level FlightAware Approximate
07:41AM 67.2258 -13.5717 271° West  Level FlightAware Approximate
07:42AM 67.2263 -13.8914 270° West  Level FlightAware Approximate
07:43AM 67.2262 -14.2111 270° West  Level FlightAware Approximate
07:44AM 67.2254 -14.5309 270° West  Level FlightAware Approximate
07:45AM 67.2239 -14.8505 269° West  Level FlightAware Approximate
07:46AM 67.2219 -15.1702 269° West  Level FlightAware Approximate
07:47AM 67.2192 -15.4897 269° West  Level FlightAware Approximate
07:48AM 67.2158 -15.8092 269° West  Level FlightAware Approximate
07:49AM 67.2119 -16.1286 268° West  Level FlightAware Approximate
07:50AM 67.2072 -16.4479 268° West  Level FlightAware Approximate
07:51AM 67.2020 -16.7671 268° West  Level FlightAware Approximate
07:52AM 67.1961 -17.0861 267° West  Level FlightAware Approximate
07:53AM 67.1896 -17.4049 267° West  Level FlightAware Approximate
07:54AM 67.1824 -17.7236 267° West  Level FlightAware Approximate
07:55AM 67.1747 -18.0420 267° West  Level FlightAware Approximate
07:56AM 67.1663 -18.3603 266° West  Level FlightAware Approximate
07:57AM 67.1572 -18.6783 266° West  Level FlightAware Approximate
07:58AM 67.1475 -18.9960 265° West  Level FlightAware Approximate
07:59AM 67.1369 -19.3135 265° West  Level FlightAware Approximate
08:00AM 67.1258 -19.6307 265° West  Level FlightAware Approximate
08:01AM 67.1140 -19.9475 265° West  Level FlightAware Approximate
08:02AM 67.1016 -20.2641 264° West  Level FlightAware Approximate
08:03AM 67.0886 -20.5803 264° West  Level FlightAware Approximate
08:04AM 67.0750 -20.8962 264° West  Level FlightAware Approximate
08:05AM 67.0607 -21.2117 264° West  Level FlightAware Approximate
08:06AM 67.0458 -21.5269 263° West  Level FlightAware Approximate
08:07AM 67.0303 -21.8416 263° West  Level FlightAware Approximate
08:08AM 67.0141 -22.1560 263° West  Level FlightAware Approximate
08:09AM 66.9974 -22.4699 262° West  Level FlightAware Approximate
08:10AM 66.9800 -22.7833 262° West  Level FlightAware Approximate
08:11AM 66.9620 -23.0963 262° West  Level FlightAware Approximate
08:12AM 66.9434 -23.4089 261° West  Level FlightAware Approximate
08:13AM 66.9242 -23.7209 261° West  Level FlightAware Approximate
08:14AM 66.9043 -24.0325 261° West  Level FlightAware Approximate
08:15AM 66.8839 -24.3435 261° West  Level FlightAware Approximate
08:16AM 66.8628 -24.6541 260° West  Level FlightAware Approximate
08:17AM 66.8412 -24.9640 260° West  Level FlightAware Approximate
08:18AM 66.8189 -25.2735 260° West  Level FlightAware Approximate
08:19AM 66.7960 -25.5823 259° West  Level FlightAware Approximate
08:20AM 66.7726 -25.8906 259° West  Level FlightAware Approximate
08:21AM 66.7491 -26.1985 259° West  Level FlightAware Approximate
08:22AM 66.7252 -26.5060 259° West  Level FlightAware Approximate
08:23AM 66.7008 -26.8129 259° West  Level FlightAware Approximate
08:24AM 66.6757 -27.1192 258° West  Level FlightAware Approximate
08:25AM 66.6500 -27.4248 258° West  Level FlightAware Approximate
08:26AM 66.6238 -27.7298 258° West  Level FlightAware Approximate
08:27AM 66.5969 -28.0341 258° West  Level FlightAware Approximate
08:28AM 66.5695 -28.3378 257° West  Level FlightAware Approximate
08:29AM 66.5415 -28.6408 257° West  Level FlightAware Approximate
08:30AM 66.5129 -28.9431 257° West  Level FlightAware Approximate
08:31AM 66.4837 -29.2447 257° West  Level FlightAware Approximate
08:32AM 66.4540 -29.5457 256° West  Level FlightAware Approximate
08:33AM 66.4236 -29.8458 256° West  Level FlightAware Approximate
08:34AM 66.3927 -30.1453 256° West  Level FlightAware Approximate
08:35AM 66.3612 -30.4440 255° West  Level FlightAware Approximate
08:36AM 66.3292 -30.7419 255° West  Level FlightAware Approximate
08:37AM 66.2965 -31.0391 255° West  Level FlightAware Approximate
08:38AM 66.2634 -31.3355 255° West  Level FlightAware Approximate
08:39AM 66.2296 -31.6311 254° West  Level FlightAware Approximate
08:40AM 66.1953 -31.9259 254° West  Level FlightAware Approximate
08:41AM 66.1604 -32.2199 254° West  Level FlightAware Approximate
08:42AM 66.1250 -32.5131 253° West  Level FlightAware Approximate
08:43AM 66.0888 -32.8053 253° West  Level FlightAware Approximate
08:44AM 66.0516 -33.0963 253° West  Level FlightAware Approximate
08:45AM 66.0138 -33.3864 252° West  Level FlightAware Approximate
08:46AM 65.9754 -33.6757 252° West  Level FlightAware Approximate
08:47AM 65.9366 -33.9641 252° West  Level FlightAware Approximate
08:48AM 65.8971 -34.2516 252° West  Level FlightAware Approximate
08:49AM 65.8572 -34.5382 251° West  Level FlightAware Approximate
08:50AM 65.8167 -34.8239 251° West  Level FlightAware Approximate
08:51AM 65.7757 -35.1087 251° West  Level FlightAware Approximate
08:52AM 65.7342 -35.3927 251° West  Level FlightAware Approximate
08:53AM 65.6921 -35.6756 250° West  Level FlightAware Approximate
08:54AM 65.6495 -35.9577 250° West  Level FlightAware Approximate
08:55AM 65.6064 -36.2388 250° West  Level FlightAware Approximate
08:56AM 65.5628 -36.5191 249° West  Level FlightAware Approximate
08:57AM 65.5186 -36.7983 249° West  Level FlightAware Approximate
08:58AM 65.4740 -37.0766 249° West  Level FlightAware Approximate
08:59AM 65.4288 -37.3540 249° West  Level FlightAware Approximate
09:00AM 65.3832 -37.6304 248° West  Level FlightAware Approximate
09:01AM 65.3370 -37.9058 248° West  Level FlightAware Approximate
09:02AM 65.2903 -38.1803 248° West  Level FlightAware Approximate
09:03AM 65.2432 -38.4538 248° West  Level FlightAware Approximate
09:04AM 65.1955 -38.7263 247° West  Level FlightAware Approximate
09:05AM 65.1474 -38.9978 247° West  Level FlightAware Approximate
09:06AM 65.0987 -39.2683 247° West  Level FlightAware Approximate
09:07AM 65.0496 -39.5379 247° West  Level FlightAware Approximate
09:08AM 65.0000 -39.8064 246° West  Level FlightAware Approximate
09:09AM 64.9499 -40.0739 246° West  Level FlightAware Approximate
09:10AM 64.8993 -40.3405 246° West  Level FlightAware Approximate
09:11AM 64.8483 -40.6060 246° West  Level FlightAware Approximate
09:12AM 64.7968 -40.8705 246° West  Level FlightAware Approximate
09:13AM 64.7448 -41.1340 245° Southwest  Level FlightAware Approximate
09:14AM 64.6923 -41.3965 245° Southwest  Level FlightAware Approximate
09:15AM 64.6394 -41.6580 245° Southwest  Level FlightAware Approximate
09:16AM 64.5861 -41.9184 245° Southwest  Level FlightAware Approximate
09:17AM 64.5322 -42.1779 244° Southwest  Level FlightAware Approximate
09:18AM 64.4780 -42.4363 244° Southwest  Level FlightAware Approximate
09:19AM 64.4232 -42.6937 244° Southwest  Level FlightAware Approximate
09:20AM 64.3680 -42.9500 244° Southwest  Level FlightAware Approximate
09:21AM 64.3124 -43.2053 243° Southwest  Level FlightAware Approximate
09:22AM 64.2563 -43.4596 243° Southwest  Level FlightAware Approximate
09:23AM 64.1998 -43.7128 243° Southwest  Level FlightAware Approximate
09:24AM 64.1429 -43.9651 243° Southwest  Level FlightAware Approximate
09:25AM 64.0855 -44.2162 242° Southwest  Level FlightAware Approximate
09:26AM 64.0277 -44.4664 242° Southwest  Level FlightAware Approximate
09:27AM 63.9695 -44.7155 242° Southwest  Level FlightAware Approximate
09:28AM 63.9108 -44.9635 242° Southwest  Level FlightAware Approximate
09:29AM 63.8517 -45.2106 242° Southwest  Level FlightAware Approximate
09:30AM 63.7922 -45.4565 241° Southwest  Level FlightAware Approximate
09:31AM 63.7323 -45.7015 241° Southwest  Level FlightAware Approximate
09:32AM 63.6719 -45.9454 241° Southwest  Level FlightAware Approximate
09:33AM 63.6112 -46.1883 241° Southwest  Level FlightAware Approximate
09:34AM 63.5500 -46.4301 240° Southwest  Level FlightAware Approximate
09:35AM 63.4884 -46.6709 240° Southwest  Level FlightAware Approximate
09:36AM 63.4265 -46.9106 240° Southwest  Level FlightAware Approximate
09:37AM 63.3641 -47.1493 240° Southwest  Level FlightAware Approximate
09:38AM 63.3014 -47.3870 240° Southwest  Level FlightAware Approximate
09:39AM 63.2382 -47.6237 239° Southwest  Level FlightAware Approximate
09:40AM 63.1746 -47.8593 239° Southwest  Level FlightAware Approximate
09:41AM 63.1107 -48.0938 239° Southwest  Level FlightAware Approximate
09:42AM 63.0464 -48.3274 239° Southwest  Level FlightAware Approximate
09:43AM 62.9817 -48.5599 239° Southwest  Level FlightAware Approximate
09:44AM 62.9166 -48.7913 238° Southwest  Level FlightAware Approximate
09:45AM 62.8512 -49.0218 238° Southwest  Level FlightAware Approximate
09:46AM 62.7853 -49.2512 238° Southwest  Level FlightAware Approximate
09:47AM 62.7191 -49.4796 238° Southwest  Level FlightAware Approximate
09:48AM 62.6525 -49.7070 238° Southwest  Level FlightAware Approximate
09:49AM 62.5856 -49.9333 237° Southwest  Level FlightAware Approximate
09:50AM 62.5183 -50.1586 237° Southwest  Level FlightAware Approximate
09:51AM 62.4506 -50.3829 237° Southwest  Level FlightAware Approximate
09:52AM 62.3826 -50.6062 237° Southwest  Level FlightAware Approximate
09:53AM 62.3142 -50.8285 237° Southwest  Level FlightAware Approximate
09:54AM 62.2454 -51.0498 236° Southwest  Level FlightAware Approximate
09:55AM 62.1764 -51.2700 236° Southwest  Level FlightAware Approximate
09:56AM 62.1069 -51.4893 236° Southwest  Level FlightAware Approximate
09:57AM 62.0372 -51.7075 236° Southwest  Level FlightAware Approximate
09:58AM 61.9670 -51.9248 236° Southwest  Level FlightAware Approximate
09:59AM 61.8966 -52.1410 235° Southwest  Level FlightAware Approximate
10:00AM 61.8258 -52.3563 235° Southwest  Level FlightAware Approximate
10:01AM 61.7546 -52.5705 235° Southwest  Level FlightAware Approximate
10:02AM 61.6832 -52.7838 235° Southwest  Level FlightAware Approximate
10:03AM 61.6114 -52.9961 235° Southwest  Level FlightAware Approximate
10:04AM 61.5392 -53.2073 234° Southwest  Level FlightAware Approximate
10:05AM 61.4668 -53.4176 234° Southwest  Level FlightAware Approximate
10:06AM 61.3940 -53.6270 234° Southwest  Level FlightAware Approximate
10:07AM 61.3209 -53.8353 234° Southwest  Level FlightAware Approximate
10:08AM 61.2475 -54.0427 234° Southwest  Level FlightAware Approximate
10:08AM 63.5833 -55.3000 219° Southwest 470 541 37,000  Level Gander Center
10:09AM 61.1738 -54.2491 234° Southwest  Level FlightAware Approximate
10:10AM 61.0998 -54.4546 233° Southwest  Level FlightAware Approximate
10:11AM 61.0254 -54.6591 233° Southwest  Level FlightAware Approximate
10:12AM 60.9288 -54.8217 219° Southwest  Level Estimated
10:12AM 63.3500 -56.0833 237° Southwest 450 518 37,000  Level Gander Center
10:12AM 63.2833 -56.2667 231° Southwest 450 518 37,000  Level Gander Center
10:13AM 60.8321 -54.9833 219° Southwest  Level Estimated
10:14AM 60.7351 -55.1439 219° Southwest  Level Estimated
10:15AM 63.1333 -56.7667 237° Southwest 460 529 37,000  Level Gander Center
10:15AM 63.0833 -56.9667 241° Southwest 450 518 37,000  Level Gander Center
10:16AM 63.0167 -57.2000 238° Southwest 460 529 37,000  Level Gander Center
10:17AM 62.9333 -57.4167 230° Southwest 460 529 37,000  Level Gander Center
10:18AM 62.8833 -57.6500 245° Southwest 460 529 37,000  Level Gander Center
10:19AM 62.8000 -57.8833 232° Southwest 460 529 37,000  Level Gander Center
10:20AM 62.7333 -58.1000 236° Southwest 450 518 37,000  Level Gander Center
10:21AM 62.6667 -58.3167 236° Southwest 450 518 37,000  Level Gander Center
10:22AM 62.5833 -58.5500 232° Southwest 450 518 37,000  Level Gander Center
10:23AM 62.5167 -58.6833 223° Southwest 450 518 37,000  Level Montreal Center
10:24AM 62.4333 -58.9833 239° Southwest 450 518 37,000  Level Gander Center
10:25AM 62.3833 -59.2167 245° Southwest 450 518 37,000  Level Gander Center
10:26AM 62.3000 -59.4000 226° Southwest 450 518 37,000  Level Gander Center
10:27AM 62.2167 -59.6167 231° Southwest 450 518 37,000  Level Gander Center
10:28AM 62.1500 -59.8333 237° Southwest 450 518 37,000  Level Gander Center
10:29AM 62.0833 -60.0000 230° Southwest 440 506 37,000  Level Montreal Center
10:30AM 62.0000 -60.1833 226° Southwest 440 506 37,000  Level Montreal Center
10:31AM 61.9333 -60.4000 237° Southwest 440 506 37,000  Level Montreal Center
10:32AM 61.8500 -60.6167 231° Southwest 440 506 37,000  Level Montreal Center
10:33AM 61.7833 -60.8333 237° Southwest 440 506 37,000  Level Montreal Center
10:35AM 61.6333 -61.2833 235° Southwest 440 506 37,000  Level Gander Center
10:36AM 61.5667 -61.4833 235° Southwest 450 518 37,000  Level Gander Center
10:37AM 61.4833 -61.6500 224° Southwest 440 506 37,000  Level Montreal Center
10:38AM 61.4000 -61.8333 227° Southwest 450 518 37,000  Level Montreal Center
10:39AM 61.3167 -62.0500 231° Southwest 450 518 37,000  Level Montreal Center
10:40AM 61.2667 -62.2500 243° Southwest 440 506 37,000  Level Montreal Center
10:41AM 61.1833 -62.4667 231° Southwest 450 518 37,000  Level Montreal Center
10:42AM 61.1000 -62.6833 232° Southwest 450 518 37,000  Level Montreal Center
10:44AM 60.9333 -63.0667 228° Southwest 440 506 37,000  Level Montreal Center
10:45AM 60.8500 -63.3000 234° Southwest 470 541 37,000 240 Level Montreal Center
10:46AM 60.7667 -63.5000 230° Southwest 450 518 37,500 300 Climbing Montreal Center
10:48AM 60.6000 -63.9500 233° Southwest 460 529 38,000 120 Climbing Gander Center
10:49AM 60.5333 -64.1500 236° Southwest 460 529 38,000  Level Gander Center
10:50AM 60.4500 -64.2833 218° Southwest 460 529 38,000  Level Montreal Center
10:51AM 60.3667 -64.4833 230° Southwest 460 529 38,000  Level Montreal Center
10:53AM 60.2000 -64.9333 233° Southwest 460 529 38,000  Level Gander Center
10:54AM 60.1167 -65.1167 228° Southwest 460 529 38,000  Level Gander Center
10:55AM 60.0333 -65.2333 215° Southwest 460 529 38,000  Level Montreal Center
10:57AM 59.8333 -65.5667 220° Southwest 450 518 38,000  Level Montreal Center
10:58AM 59.7333 -65.7333 220° Southwest 450 518 38,000  Level Montreal Center
10:59AM 59.6333 -65.9000 220° Southwest 450 518 38,000  Level Montreal Center
11:00AM 59.5500 -66.0667 225° Southwest 450 518 38,000  Level Montreal Center
11:01AM 59.4500 -66.2167 217° Southwest 460 529 38,000  Level Montreal Center
11:02AM 59.3500 -66.3833 220° Southwest 460 529 38,000  Level Montreal Center
11:03AM 59.2500 -66.6167 230° Southwest 460 529 38,000  Level Gander Center
11:04AM 59.1667 -66.7333 216° Southwest 460 529 38,000  Level Montreal Center
11:05AM 59.0667 -66.8833 218° Southwest 460 529 38,000  Level Montreal Center
11:06AM 58.9667 -67.0500 221° Southwest 450 518 38,000  Level Montreal Center
11:07AM 58.8667 -67.2500 226° Southwest 450 518 38,000  Level Gander Center
11:08AM 58.7833 -67.4000 223° Southwest 450 518 38,000  Level Gander Center
11:09AM 58.6667 -67.5167 207° Southwest 450 518 38,000  Level Montreal Center
11:10AM 58.5833 -67.6667 223° Southwest 450 518 38,000  Level Montreal Center
11:11AM 58.4667 -67.8167 214° Southwest 450 518 38,000  Level Montreal Center
11:12AM 58.3833 -67.9667 223° Southwest 450 518 38,000  Level Montreal Center
11:13AM 58.2833 -68.1167 218° Southwest 450 518 38,000  Level Montreal Center
11:14AM 58.2000 -68.2667 224° Southwest 470 541 38,000  Level Montreal Center
11:16AM 58.0167 -68.5167 216° Southwest 480 552 38,000  Level Montreal Center
11:17AM 57.9167 -68.6667 219° Southwest 460 529 38,000  Level Montreal Center
11:18AM 57.8000 -68.7833 208° Southwest 460 529 38,000  Level Montreal Center
11:19AM 57.7000 -68.9333 219° Southwest 460 529 38,000  Level Montreal Center
11:20AM 57.6000 -69.0833 219° Southwest 460 529 38,000  Level Montreal Center
11:21AM 57.5000 -69.2167 216° Southwest 460 529 38,000  Level Montreal Center
11:23AM 57.2833 -69.5167 217° Southwest 460 529 38,000  Level Montreal Center
11:24AM 57.1833 -69.6167 208° Southwest 460 529 38,000  Level Montreal Center
11:25AM 57.0833 -69.7667 219° Southwest 460 529 38,000  Level Montreal Center
11:26AM 56.9667 -69.9000 212° Southwest 460 529 38,000  Level Montreal Center
11:27AM 56.8500 -70.0500 215° Southwest 460 529 38,000  Level Montreal Center
11:28AM 56.7667 -70.1833 221° Southwest 460 529 38,000  Level Montreal Center
11:29AM 56.6500 -70.3333 215° Southwest 460 529 38,000  Level Montreal Center
11:30AM 56.5500 -70.4667 216° Southwest 450 518 38,000  Level Montreal Center
11:31AM 56.4333 -70.5667 205° Southwest 450 518 38,000  Level Montreal Center
11:32AM 56.3500 -70.7000 222° Southwest 450 518 38,000  Level Montreal Center
11:33AM 56.2333 -70.8500 216° Southwest 450 518 38,000  Level Montreal Center
11:34AM 56.1333 -70.9500 209° Southwest 450 518 38,000  Level Montreal Center
11:36AM 55.9333 -71.2167 217° Southwest 450 518 38,000  Level Montreal Center
11:37AM 55.8333 -71.3167 209° Southwest 440 506 38,000  Level Montreal Center
11:38AM 55.7167 -71.4500 213° Southwest 450 518 38,000  Level Montreal Center
11:40AM 55.4833 -71.7167 213° Southwest 460 529 38,000  Level Montreal Center
11:41AM 55.3833 -71.8333 214° Southwest 450 518 38,000  Level Montreal Center
11:43AM 55.1833 -72.0667 214° Southwest 460 529 38,000  Level Montreal Center
11:44AM 55.0667 -72.2000 213° Southwest 460 529 38,000  Level Montreal Center
11:45AM 54.9500 -72.3333 213° Southwest 460 529 38,000  Level Montreal Center
11:46AM 54.8500 -72.4500 214° Southwest 460 529 38,000  Level Montreal Center
11:47AM 54.7333 -72.5833 213° Southwest 460 529 38,000  Level Montreal Center
11:48AM 54.6500 -72.7000 219° Southwest 460 529 38,000  Level Montreal Center
11:49AM 54.5333 -72.8000 206° Southwest 460 529 38,000  Level Montreal Center
11:50AM 54.4333 -72.9167 214° Southwest 450 518 38,000  Level Montreal Center
11:51AM 54.3167 -73.0500 214° Southwest 450 518 38,000  Level Montreal Center
11:52AM 54.2000 -73.1667 210° Southwest 450 518 38,000  Level Montreal Center
11:54AM 53.9833 -73.3833 210° Southwest 460 529 38,000  Level Montreal Center
11:55AM 53.8833 -73.5000 215° Southwest 460 529 38,000  Level Montreal Center
11:56AM 53.7667 -73.6333 214° Southwest 460 529 38,000  Level Montreal Center
11:57AM 53.6500 -73.7500 211° Southwest 460 529 38,000  Level Montreal Center
11:58AM 53.5333 -73.8333 203° Southwest 460 529 38,000  Level Montreal Center
11:59AM 53.4167 -73.9333 207° Southwest 460 529 38,000  Level Montreal Center
12:00PM 53.3000 -74.0167 203° Southwest 460 529 38,000  Level Montreal Center
12:01PM 53.2000 -74.1000 207° Southwest 460 529 38,000  Level Montreal Center
12:02PM 53.0833 -74.2333 214° Southwest 460 529 38,000  Level Montreal Center
12:03PM 52.9667 -74.3167 203° Southwest 460 529 38,000  Level Montreal Center
12:04PM 52.8667 -74.4000 207° Southwest 460 529 38,000  Level Montreal Center
12:05PM 52.7333 -74.4833 201° Southwest 470 541 38,000  Level Montreal Center
12:06PM 52.6333 -74.6000 215° Southwest 470 541 38,000  Level Montreal Center
12:07PM 52.5167 -74.7000 208° Southwest 470 541 38,000  Level Montreal Center
12:08PM 52.3833 -74.7833 201° Southwest 460 529 38,000  Level Montreal Center
12:09PM 52.2667 -74.8667 204° Southwest 450 518 38,000  Level Montreal Center
12:10PM 52.1500 -74.9833 212° Southwest 460 529 38,000  Level Montreal Center
12:11PM 52.0333 -75.0667 204° Southwest 460 529 38,000  Level Montreal Center
12:12PM 51.9167 -75.1500 204° Southwest 460 529 38,000  Level Montreal Center
12:13PM 51.8000 -75.2333 204° Southwest 460 529 38,000  Level Montreal Center
12:14PM 51.6833 -75.3333 208° Southwest 450 518 38,000  Level Montreal Center
12:15PM 51.5833 -75.4167 207° Southwest 450 518 38,000  Level Montreal Center
12:16PM 51.4500 -75.5000 201° Southwest 450 518 38,000  Level Montreal Center
12:17PM 51.3500 -75.5833 208° Southwest 450 518 38,000  Level Montreal Center
12:19PM 51.1167 -75.7500 205° Southwest 450 518 38,000  Level Montreal Center
12:20PM 51.0000 -75.8500 208° Southwest 450 518 38,000  Level Montreal Center
12:21PM 50.8833 -75.9333 204° Southwest 460 529 38,000  Level Montreal Center
12:24PM 50.5500 -76.1833 205° Southwest 450 518 38,000  Level Montreal Center
12:25PM 50.4333 -76.2500 200° South 440 506 38,000  Level Montreal Center
12:26PM 50.3333 -76.3333 208° Southwest 440 506 38,000  Level Montreal Center
12:27PM 50.2167 -76.4333 209° Southwest 440 506 38,000  Level Montreal Center
12:28PM 50.0833 -76.5167 202° Southwest 440 506 38,000  Level Montreal Center
12:29PM 49.9667 -76.6000 205° Southwest 450 518 38,000  Level Montreal Center
12:30PM 49.9633 -76.5970 205° Southwest  Level FlightAware Approximate
12:30PM 49.8667 -76.6667 203° Southwest 440 506 38,000  Level Montreal Center
12:31PM 49.7500 -76.7500 205° Southwest 440 506 38,000  Level Montreal Center
12:32PM 49.6333 -76.8167 200° South 440 506 38,000  Level Montreal Center
12:33PM 49.5333 -76.9000 208° Southwest 420 483 38,000  Level Montreal Center
12:34PM 49.4167 -76.9667 200° South 450 518 38,000  Level Montreal Center
12:35PM 49.3000 -77.0500 205° Southwest 450 518 38,000  Level Montreal Center
12:36PM 49.2000 -77.1500 213° Southwest 420 483 38,000  Level Montreal Center
12:37PM 49.0833 -77.2000 196° South 440 506 38,000  Level Montreal Center
12:38PM 48.9833 -77.3000 213° Southwest 440 506 38,000  Level Montreal Center
12:39PM 48.8500 -77.3667 198° South 440 506 38,000  Level Montreal Center
12:40PM 48.7500 -77.4500 209° Southwest 440 506 38,000  Level Montreal Center
12:41PM 48.6333 -77.5167 201° Southwest 440 506 38,000  Level Montreal Center
12:43PM 48.4500 -77.6167 200° South 450 518 38,000  Level Toronto Center
12:44PM 48.3167 -77.7000 203° Southwest 450 518 38,000  Level Toronto Center
12:45PM 48.2167 -77.7500 198° South 450 518 38,000  Level Toronto Center
12:46PM 48.0833 -77.8333 203° Southwest 450 518 38,000  Level Toronto Center
12:48PM 47.8667 -77.9667 205° Southwest 450 518 38,000  Level Toronto Center
12:49PM 47.7333 -78.0500 203° Southwest 450 518 38,000  Level Toronto Center
12:50PM 47.6333 -78.1000 199° South 450 518 38,000  Level Toronto Center
12:51PM 47.5000 -78.1833 203° Southwest 440 506 38,000  Level Toronto Center
12:52PM 47.4000 -78.2333 199° South 440 506 38,000  Level Toronto Center
12:53PM 47.2500 -78.3667 211° Southwest 440 506 38,000  Level Montreal Center
12:54PM 47.1333 -78.4333 201° Southwest 440 506 38,000  Level Montreal Center
12:55PM 47.0000 -78.5000 199° South 440 506 38,000  Level Montreal Center
12:56PM 46.9000 -78.5500 199° South 440 506 38,000  Level Montreal Center
12:57PM 46.8333 -78.5667 190° South 440 506 38,000  Level Toronto Center
12:58PM 46.7167 -78.6333 201° Southwest 440 506 38,000  Level Toronto Center
12:59PM 46.6000 -78.6833 196° South 440 506 38,000  Level Toronto Center
01:01PM 46.3667 -78.8333 204° Southwest 440 506 38,000  Level Toronto Center
01:02PM 46.2500 -78.8833 197° South 440 506 38,000  Level Toronto Center
01:03PM 46.1333 -78.9500 202° Southwest 440 506 38,000  Level Toronto Center
01:09PM 45.7790 -79.1665 202° Southwest 440 506 38,000  Level FlightAware ADS-B (CYOW)
01:11PM 45.3228 -79.4086 200° South 440 506 38,000  Level FlightAware ADS-B (CYKF)
01:12PM 45.3228 -79.4086 322° Northwest 440 506 38,000  Level FlightAware ADS-B (CYKF)
01:17PM 45.3228 -79.4086 20° North 420 483 38,000  Level FlightAware ADS-B (CYKF)
01:22PM 44.0702 -80.2519 206° Southwest 428 493 38,000  Level FlightAware ADS-B (CYKF)
01:23PM 43.9731 -80.3380 213° Southwest 426 490 38,000  Level FlightAware ADS-B (EPWA / WAW)
01:23PM 43.9062 -80.3970 212° Southwest 424 488 38,000  Level FlightAware ADS-B (EPWA / WAW)
01:24PM 43.8214 -80.4716 212° Southwest 421 484 38,000  Level FlightAware ADS-B (CYKF)
01:25PM 43.7801 -80.5078 212° Southwest 421 484 38,000  Level FlightAware ADS-B (MDST / STI)
01:25PM 43.7089 -80.5701 212° Southwest 423 487 38,000  Level FlightAware ADS-B (CYKF)
01:26PM 43.6414 -80.6290 212° Southwest 424 488 38,000  Level FlightAware ADS-B (CYKF)
01:27PM 43.5854 -80.6779 212° Southwest 427 491 38,000  Level FlightAware ADS-B (EPWA / WAW)
01:27PM 43.4888 -80.7618 212° Southwest 427 491 38,000  Level FlightAware ADS-B (EPWA / WAW)
01:28PM 43.4361 -80.8074 212° Southwest 427 491 38,000  Level FlightAware ADS-B (CYKF)
01:29PM 43.3720 -80.8628 212° Southwest 429 494 38,000  Level FlightAware ADS-B (CYKF)
01:29PM 43.2983 -80.9262 212° Southwest 427 491 38,000  Level FlightAware ADS-B (EPWA / WAW)
01:30PM 43.2231 -80.9908 212° Southwest 426 490 38,000  Level FlightAware ADS-B (EPWA / WAW)
01:31PM 43.1676 -81.0384 212° Southwest 426 490 38,000  Level FlightAware ADS-B (EPWA / WAW)
01:31PM 43.1012 -81.0951 212° Southwest 424 488 38,000  Level FlightAware ADS-B (EPWA / WAW)
01:32PM 43.0465 -81.1410 212° Southwest 424 488 38,000  Level FlightAware ADS-B (EPWA / WAW)
01:33PM 42.9744 -81.1866 205° Southwest 433 498 38,000  Level FlightAware ADS-B (EPWA / WAW)
01:33PM 42.9001 -81.2337 205° Southwest 430 495 38,000  Level FlightAware ADS-B (CYKF)
01:34PM 42.9001 -81.2337 205° Southwest 429 494 38,000  Level FlightAware ADS-B (CYKF)
01:35PM 42.7521 -81.3255 204° Southwest 426 490 38,000  Level FlightAware ADS-B (CYKF)
01:36PM 42.6416 -81.3933 204° Southwest 423 487 38,000  Level FlightAware ADS-B (CYKF)
01:36PM 42.5698 -81.4372 204° Southwest 423 487 38,000  Level FlightAware ADS-B (CYKF)
01:37PM 42.6139 -81.4102 24° Northeast 418 481 38,000  Level FlightAware ADS-B (EPWA / WAW)
01:38PM 42.6139 -81.4102 24° Northeast 415 478 38,000  Level FlightAware ADS-B (EPWA / WAW)
01:39PM 42.3000 -81.6000 24° Northeast 410 472 38,000  Level Toronto Center
01:40PM 42.2000 -81.6333 194° South 410 472 38,000  Level Toronto Center
01:41PM 42.0833 -81.7000 203° Southwest 420 483 38,000  Level Toronto Center
01:43PM 41.8603 -81.8653 209° Southwest 412 474 38,000  Level Cleveland Center
01:44PM 41.7542 -81.9289 204° Southwest 416 479 38,000  Level Cleveland Center
01:45PM 41.6472 -81.9908 203° Southwest 416 479 38,000  Level Cleveland Center
01:46PM 41.5406 -82.0539 204° Southwest 418 481 38,000  Level Cleveland Center
01:47PM 41.4139 -82.1278 204° Southwest 424 488 38,000  Level Cleveland Center
01:48PM 41.2997 -82.1814 199° South 436 502 38,000  Level Cleveland Center
01:49PM 41.1803 -82.2261 196° South 445 512 38,000  Level Cleveland Center
01:50PM 41.0586 -82.2689 195° South 449 517 38,000  Level Cleveland Center
01:51PM 40.9383 -82.3114 195° South 446 513 38,000  Level Cleveland Center
01:52PM 40.8578 -82.3400 195° South 444 511 38,000  Level Indianapolis Center
01:58PM 40.1399 -82.5863 195° South 439 505 38,000  Level FlightAware ADS-B (KPMH)
02:00PM 39.8962 -82.6058 184° South 439 505 38,000  Level FlightAware ADS-B (KPMH)
02:01PM 39.7862 -82.6131 183° South 431 496 38,000  Level FlightAware ADS-B (KPMH)
02:02PM 39.6802 -82.6203 183° South 428 493 38,000  Level FlightAware ADS-B (KPMH)
02:03PM 39.5988 -82.6258 183° South 429 494 38,000  Level FlightAware ADS-B (KPMH)
02:03PM 39.5193 -82.6313 183° South 430 495 38,000  Level FlightAware ADS-B (KPMH)
02:04PM 39.4412 -82.6365 183° South 432 497 38,000  Level FlightAware ADS-B (KPMH)
02:04PM 39.3770 -82.6408 183° South 433 498 38,000  Level FlightAware ADS-B (KPMH)
02:05PM 39.2951 -82.6462 183° South 434 499 38,000  Level FlightAware ADS-B (KPMH)
02:06PM 39.2104 -82.6519 183° South 435 501 38,000  Level FlightAware ADS-B (KPMH)
02:06PM 39.1333 -82.6570 183° South 436 502 38,000  Level FlightAware ADS-B (KPMH)
02:07PM 39.0607 -82.6618 183° South 437 503 38,000  Level FlightAware ADS-B (KPMH)
02:08PM 38.9791 -82.6622 180° South 453 521 38,000  Level FlightAware ADS-B (KPMH)
02:08PM 38.9055 -82.6465 171° South 459 528 38,000  Level FlightAware ADS-B (KPMH)
02:08PM 38.9067 -82.6464 179° South 448 516 38,000  Level Indianapolis Center
02:09PM 38.8286 -82.6289 170° South 461 531 38,000  Level FlightAware ADS-B (KPMH)
02:10PM 38.7749 -82.6444 179° South  Level FlightAware Approximate
02:10PM 38.7519 -82.6110 170° South 463 533 38,000  Level FlightAware ADS-B (KPMH)
02:10PM 38.6763 -82.5931 169° South 464 534 38,000  Level FlightAware ADS-B (KPMH)
02:10PM 38.6553 -82.5883 179° South 460 529 38,000  Level Indianapolis Center
02:12PM 38.5206 -82.5556 169° South 463 533 38,000  Level Indianapolis Center
02:13PM 38.3919 -82.5261 170° South 466 536 38,000  Level Indianapolis Center
02:14PM 38.2693 -82.5874 179° South  Level Estimated
02:14PM 38.2483 -82.4917 169° South 467 537 38,000  Level Indianapolis Center
02:15PM 38.1206 -82.4611 169° South 468 539 38,000  Level Indianapolis Center
02:16PM 37.9936 -82.4675 182° South 438 504 38,000  Level Indianapolis Center
02:17PM 37.8958 -82.5325 208° Southwest 401 461 38,000  Level Indianapolis Center
02:18PM 37.8006 -82.6008 210° Southwest 395 455 38,000  Level Indianapolis Center
02:19PM 37.7053 -82.6669 209° Southwest 391 450 38,000  Level Indianapolis Center
02:20PM 37.6122 -82.7331 209° Southwest 386 444 38,000  Level Indianapolis Center
02:21PM 37.5031 -82.8081 209° Southwest 383 441 38,000  Level Indianapolis Center
02:23PM 37.3156 -82.9375 209° Southwest 384 442 38,000  Level Indianapolis Center
02:24PM 37.2217 -83.0019 209° Southwest 386 444 38,000  Level Indianapolis Center
02:25PM 37.1275 -83.0669 209° Southwest 388 447 38,000  Level Indianapolis Center
02:27PM 36.9044 -83.2236 209° Southwest 409 471 38,000  Level Atlanta Center
02:29PM 36.7092 -83.3553 206° Southwest 403 464 38,000  Level Atlanta Center
02:30PM 36.6308 -83.4064 208° Southwest 400 460 38,000  Level Indianapolis Center
02:31PM 36.5156 -83.4850 209° Southwest 403 464 38,000  Level Indianapolis Center
02:32PM 36.4181 -83.5517 209° Southwest 407 468 38,000  Level Indianapolis Center
02:33PM 36.3169 -83.6189 208° Southwest 409 471 38,000  Level Indianapolis Center
02:34PM 36.2164 -83.6867 209° Southwest 410 472 38,000  Level Indianapolis Center
02:35PM 36.1142 -83.7544 208° Southwest 413 475 38,000  Level Indianapolis Center
02:36PM 36.0122 -83.8256 209° Southwest 413 475 38,000  Level Atlanta Center
02:41PM 35.3115 -84.0386 209° Southwest 428 493 38,000  Level FlightAware ADS-B (KDZJ)
02:42PM 35.2490 -84.0536 191° South 424 488 38,000  Level FlightAware ADS-B (KDZJ)
02:42PM 35.1913 -84.0674 191° South 424 488 38,000  Level FlightAware ADS-B (KDZJ)
02:43PM 35.1092 -84.0872 191° South 424 488 38,000  Level FlightAware ADS-B (KDZJ)
02:44PM 35.0440 -84.1026 191° South 423 487 38,000  Level FlightAware ADS-B (KDZJ)
02:44PM 34.9576 -84.1232 191° South 430 495 38,000  Level FlightAware ADS-B (KDZJ)
02:45PM 34.8749 -84.1429 191° South 428 493 38,000  Level FlightAware ADS-B (KDZJ)
02:46PM 34.8007 -84.1607 191° South 429 494 38,000  Level FlightAware ADS-B (KDZJ)
02:46PM 34.7377 -84.1756 191° South 424 488 38,000  Level FlightAware ADS-B (KDZJ)
02:47PM 34.6426 -84.1982 191° South 424 488 38,000  Level FlightAware ADS-B (KDZJ)
02:48PM 34.5798 -84.2130 191° South 424 488 38,000  Level FlightAware ADS-B (KDZJ)
02:48PM 34.5020 -84.2313 191° South 423 487 38,000  Level FlightAware ADS-B (KDZJ)
02:49PM 34.4051 -84.2541 191° South 429 494 38,000  Level FlightAware ADS-B (KDZJ)
02:50PM 34.3282 -84.2722 191° South 429 494 38,000  Level FlightAware ADS-B (KDZJ)
02:50PM 34.3825 -84.2578 190° South 431 496 38,000  Level Atlanta Center
02:50PM 34.2512 -84.2903 191° South 423 487 38,000  Level FlightAware ADS-B (KDZJ)
02:51PM 34.1714 -84.3091 191° South 424 488 38,000  Level FlightAware ADS-B (KDZJ)
02:51PM 34.2678 -84.2850 191° South 431 496 38,000  Level Atlanta Center
02:52PM 34.0937 -84.3272 191° South 426 490 38,000  Level FlightAware ADS-B (KDZJ)
02:52PM 34.1489 -84.3150 192° South 431 496 38,000  Level Atlanta Center
02:52PM 34.0141 -84.3458 191° South 427 491 38,000  Level FlightAware ADS-B (KDZJ)
02:53PM 33.9396 -84.3631 191° South 427 491 38,000  Level FlightAware ADS-B (KDZJ)
02:54PM 33.9003 -84.3742 191° South 440 506 38,000  Level Atlanta Center
02:55PM 33.7769 -84.4036 191° South 440 506 38,000  Level Atlanta Center
02:56PM 33.6428 -84.4277 190° South  Level FlightAware Approximate
02:56PM 33.6558 -84.4281 190° South 445 512 38,000  Level Atlanta Center
02:57PM 33.5472 -84.4375 184° South 450 518 38,000  Level Atlanta Center
02:58PM 33.4200 -84.4344 179° South 450 518 38,000  Level Atlanta Center
02:59PM 33.2906 -84.4339 180° South 455 524 38,000  Level Atlanta Center
03:00PM 33.1611 -84.4283 178° South 460 529 38,000  Level Atlanta Center
03:02PM 32.9044 -84.4272 180° South 466 536 38,000  Level Atlanta Center
03:03PM 32.7625 -84.4192 177° South 466 536 38,000  Level Atlanta Center
03:04PM 32.6331 -84.4161 179° South 459 528 38,000  Level Atlanta Center
03:05PM 32.5036 -84.4156 180° South 459 528 38,000  Level Atlanta Center
03:06PM 32.3764 -84.4128 179° South 459 528 38,000 -300 Level Atlanta Center
03:08PM 32.0719 -84.4053 179° South 459 528 37,000 -120 Descending Jacksonville Center
03:15PM 31.2316 -84.3272 179° South 480 552 37,000  Level FlightAware ADS-B (KTLH)
03:16PM 31.1363 -84.2819 158° South 480 552 37,000  Level FlightAware ADS-B (KTLH)
03:17PM 31.0540 -84.2433 158° South 479 551 37,000  Level FlightAware ADS-B (KTLH)
03:18PM 30.8856 -84.1662 159° South 481 554 37,000  Level FlightAware ADS-B (KTLH)
03:19PM 30.8132 -84.1329 158° South 481 554 37,000  Level FlightAware ADS-B (KTLH)
03:19PM 30.7216 -84.0910 159° South 482 555 37,000  Level FlightAware ADS-B (KTLH)
03:20PM 30.6525 -84.0594 159° South 483 556 37,000  Level FlightAware ADS-B (KTLH)
03:21PM 30.5545 -84.0147 159° South 483 556 37,000  Level FlightAware ADS-B (KTLH)
03:21PM 30.4754 -83.9787 159° South 483 556 37,000  Level FlightAware ADS-B (KTLH)
03:22PM 30.3944 -83.9418 159° South 482 555 37,000  Level FlightAware ADS-B (KTLH)
03:23PM 30.3078 -83.9025 159° South 480 552 37,000  Level FlightAware ADS-B (KTLH)
03:23PM 30.2403 -83.8719 159° South 480 552 37,000  Level FlightAware ADS-B (KTLH)
03:24PM 30.1744 -83.8421 159° South 482 555 37,000  Level FlightAware ADS-B (KTLH)
03:24PM 30.0775 -83.7975 159° South 477 549 37,000  Level Jacksonville Center
03:25PM 29.9525 -83.7461 160° South 477 549 37,000  Level Jacksonville Center
03:26PM 29.8278 -83.6875 158° South 482 555 37,000  Level Jacksonville Center
03:27PM 29.7131 -83.6364 159° South 487 560 37,000  Level Jacksonville Center
03:28PM 29.5903 -83.5806 158° South 487 560 37,000  Level Jacksonville Center
03:29PM 29.4675 -83.5272 159° South 487 560 37,000  Level Jacksonville Center
03:30PM 29.3425 -83.4714 159° South 487 560 37,000  Level Jacksonville Center
03:31PM 29.2236 -83.4183 159° South 475 547 37,000  Level Jacksonville Center
03:38PM 28.4637 -83.0826 159° South 465 535 37,000  Level FlightAware ADS-B (KMCO)
03:39PM 28.3008 -83.0118 159° South 467 537 37,000  Level FlightAware ADS-B (KMCO)
03:40PM 28.2092 -82.9719 159° South 467 537 37,000  Level FlightAware ADS-B (KMCO)
03:42PM 27.9432 -82.8568 159° South 467 537 37,000  Level FlightAware ADS-B (KMCO)
03:43PM 27.8463 -82.8151 159° South 468 539 37,000  Level FlightAware ADS-B (KMCO)
03:44PM 27.7219 -82.7744 176° South 461 531 37,000  Level Miami Center
03:44PM 27.6608 -82.7703 168° South 445 512 37,000  Level FlightAware ADS-B (KMCO)
03:45PM 27.5844 -82.7672 177° South 456 525 37,000  Level Miami Center
03:45PM 27.6031 -82.7662 176° South 442 509 37,000  Level FlightAware ADS-B (KMCO)
03:48PM 27.2350 -82.7422 176° South 438 504 37,000  Level Miami Center
03:50PM 27.0534 -82.7222 176° South  Level Estimated
03:54PM 26.5485 -82.6924 176° South  Level FlightAware Approximate
03:54PM 26.4862 -82.6882 176° South 444 511 37,000  Level FlightAware ADS-B (KMCO)
03:55PM 26.3997 -82.6822 176° South 446 513 37,000  Level FlightAware ADS-B (KMCO)
03:55PM 26.3230 -82.6769 176° South 447 514 37,000  Level FlightAware ADS-B (KMCO)
03:56PM 26.2370 -82.6709 176° South 442 509 37,000  Level FlightAware ADS-B (KMCO)
03:59PM 25.9209 -82.6490 176° South 438 504 37,000 -240 Level FlightAware ADS-B (KMCO)
04:02PM 25.5056 -82.6205 176° South 435 501 35,900 -480 Descending FlightAware ADS-B (KMCO)
04:03PM 25.3953 -82.6147 176° South 438 504 35,000 -960 Descending Miami Center
04:04PM 25.2744 -82.6069 177° South 438 504 34,000 -1,020 Descending Miami Center
04:05PM 25.1494 -82.5986 177° South 438 504 33,000 -1,020 Descending Miami Center
04:07PM 24.9100 -82.5828 175° South 434 499 31,000 -1,020 Descending Miami Center
04:08PM 24.8338 -82.5689 176° South  Level FlightAware Approximate
04:09PM 24.6789 -82.5675 177° South 423 487 29,000  Level Miami Center
04:10PM 24.5644 -82.5600 177° South 417 480 28,000 -1,020 Descending Miami Center
04:11PM 24.4539 -82.5550 178° South 412 474 27,000 -960 Descending Miami Center
04:12PM 24.3436 -82.5453 175° South 407 468 26,100 -960 Descending Miami Center
04:13PM 24.2333 -82.5381 177° South 402 463 25,100 -1,020 Descending Miami Center
04:15PM 24.0445 -82.5167 180° South  Level FlightAware Approximate
04:22PM 23.2018 -82.4167 180° South  Level FlightAware Approximate
04:23PM 23.0815 -82.4063 170° South  Level FlightAware Approximate
04:24PM 22.9891 -82.4091 180° South  Level Estimated
04:25PM 22.9891 -82.4091 180° South  Level Estimated
04:26PM 22.9891 -82.4091 180° South  Level Estimated
04:27PM 22.9891 -82.4091 180° South  Level Estimated
04:28PM 22.9891 -82.4091 180° South  Level Estimated
04:29PM 22.9891 -82.4091 180° South  Level Estimated
04:30PM 22.9891 -82.4091 180° South  Level Estimated
04:31PM 22.9891 -82.4091 180° South  Level Estimated
04:32PM 22.9891 -82.4091 180° South  Level Estimated
04:33PM 22.9891 -82.4091 180° South  Level Estimated
04:34PM 22.9891 -82.4091 180° South  Level Estimated
04:35PM 22.9891 -82.4091 180° South  Level Estimated
04:36PM 22.9891 -82.4091 180° South  Level Estimated
04:37PM 22.9891 -82.4091 180° South  Level Estimated
04:38PM 22.9891 -82.4091 180° South  Level Estimated
04:39PM 22.9891 -82.4091 180° South  Level Estimated
04:40PM 22.9891 -82.4091 180° South  Level Estimated
04:41PM 22.9891 -82.4091 180° South  Level Estimated
04:42PM 22.9891 -82.4091 180° South  Level Estimated
04:43PM 22.9891 -82.4091 180° South  Level Estimated
04:44PM 22.9891 -82.4091 180° South  Level Estimated
04:45PM 22.9891 -82.4091 180° South  Level Estimated
04:46PM 22.9891 -82.4091 180° South  Level Estimated